This is the latest recevied weather packets stored in our database for station/object YO8SSH-13. If no packets are shown the sender has not sent any weather packets the latest 10 day(s).
| Time | Temp. | Humidity | Pressure | Rain* | Wind** | Luminosity | Snow |
|---|---|---|---|---|---|---|---|
| 1777883046 | 23.33° C | 35% | 1015 hPa | 0 mm | - | - | - |
| 1777882146 | 22.78° C | 38% | 1015 hPa | 0 mm | - | - | - |
| 1777881247 | 22.78° C | 37% | 1015 hPa | 0 mm | - | - | - |
| 1777880346 | 22.22° C | 39% | 1015 hPa | 0 mm | - | - | - |
| 1777879447 | 21.67° C | 40% | 1015 hPa | 0 mm | - | - | - |
| 1777878546 | 21.11° C | 40% | 1015 hPa | 0 mm | - | - | - |
| 1777877646 | 21.11° C | 41% | 1015 hPa | 0 mm | - | - | - |
| 1777876745 | 20.56° C | 43% | 1015 hPa | 0 mm | - | - | - |
| 1777875846 | 19.44° C | 45% | 1015 hPa | 0 mm | - | - | - |
| 1777874946 | 18.89° C | 48% | 1015 hPa | 0 mm | - | - | - |
| 1777874046 | 17.78° C | 50% | 1015 hPa | 0 mm | - | - | - |
| 1777873147 | 17.22° C | 52% | 1015 hPa | 0 mm | - | - | - |
| 1777872246 | 16.11° C | 56% | 1015 hPa | 0 mm | - | - | - |
| 1777871346 | 13.89° C | 62% | 1015 hPa | 0 mm | - | - | - |
| 1777870445 | 11.11° C | 66% | 1015 hPa | 0 mm | - | - | - |
| 1777869551 | 10.56° C | 67% | 1015 hPa | 0 mm | - | - | - |
| 1777868647 | 9.44° C | 67% | 1015 hPa | 0 mm | - | - | - |
| 1777867747 | 8.89° C | 67% | 1015 hPa | 0 mm | - | - | - |
| 1777866846 | 8.89° C | 67% | 1015 hPa | 0 mm | - | - | - |
| 1777865947 | 8.89° C | 67% | 1014 hPa | 0 mm | - | - | - |
| 1777865048 | 8.89° C | 67% | 1014 hPa | 0 mm | - | - | - |
| 1777864147 | 8.89° C | 67% | 1014 hPa | 0 mm | - | - | - |
| 1777863247 | 8.89° C | 67% | 1014 hPa | 0 mm | - | - | - |
| 1777862347 | 8.89° C | 67% | 1014 hPa | 0 mm | - | - | - |
| 1777861446 | 8.89° C | 67% | 1014 hPa | 0 mm | - | - | - |
* Rain latest hour (hover to see other rain measurements)
** Current wind speed in m/s (hover to see current wind gust speed)